sensor_id;sensor_type;location;lat;lon;timestamp;P1;durP1;ratioP1;P2;durP2;ratioP2
7917;SDS011;4004;42.624;23.386;2023-12-28T00:01:51;8.83;;;4.77;;
7917;SDS011;4004;42.624;23.386;2023-12-28T00:04:18;7.23;;;5.40;;
7917;SDS011;4004;42.624;23.386;2023-12-28T00:06:46;7.63;;;5.00;;
7917;SDS011;4004;42.624;23.386;2023-12-28T00:09:13;7.07;;;4.50;;
7917;SDS011;4004;42.624;23.386;2023-12-28T00:11:39;7.13;;;4.60;;
7917;SDS011;4004;42.624;23.386;2023-12-28T00:14:06;7.30;;;5.07;;
7917;SDS011;4004;42.624;23.386;2023-12-28T00:16:33;9.37;;;5.07;;
7917;SDS011;4004;42.624;23.386;2023-12-28T00:19:02;9.20;;;5.00;;
7917;SDS011;4004;42.624;23.386;2023-12-28T00:21:29;8.97;;;5.27;;
7917;SDS011;4004;42.624;23.386;2023-12-28T00:23:58;7.80;;;5.27;;
7917;SDS011;4004;42.624;23.386;2023-12-28T00:26:25;8.90;;;4.93;;
7917;SDS011;4004;42.624;23.386;2023-12-28T00:28:52;9.23;;;5.13;;
7917;SDS011;4004;42.624;23.386;2023-12-28T00:31:18;8.53;;;5.00;;
7917;SDS011;4004;42.624;23.386;2023-12-28T00:33:45;8.20;;;4.80;;
7917;SDS011;4004;42.624;23.386;2023-12-28T00:36:12;7.47;;;5.20;;
7917;SDS011;4004;42.624;23.386;2023-12-28T00:38:39;7.87;;;5.10;;
7917;SDS011;4004;42.624;23.386;2023-12-28T00:41:07;7.40;;;5.07;;
7917;SDS011;4004;42.624;23.386;2023-12-28T00:43:34;8.00;;;5.80;;
7917;SDS011;4004;42.624;23.386;2023-12-28T00:46:01;9.80;;;5.60;;
7917;SDS011;4004;42.624;23.386;2023-12-28T00:48:28;12.00;;;5.73;;
7917;SDS011;4004;42.624;23.386;2023-12-28T00:50:55;8.43;;;6.03;;
7917;SDS011;4004;42.624;23.386;2023-12-28T00:53:24;7.63;;;6.13;;
7917;SDS011;4004;42.624;23.386;2023-12-28T00:55:51;6.43;;;5.53;;
7917;SDS011;4004;42.624;23.386;2023-12-28T00:58:19;10.23;;;6.00;;
7917;SDS011;4004;42.624;23.386;2023-12-28T01:00:46;7.67;;;5.33;;
7917;SDS011;4004;42.624;23.386;2023-12-28T01:03:13;7.93;;;5.37;;
7917;SDS011;4004;42.624;23.386;2023-12-28T01:05:40;10.03;;;5.70;;
7917;SDS011;4004;42.624;23.386;2023-12-28T01:08:07;8.53;;;5.33;;
7917;SDS011;4004;42.624;23.386;2023-12-28T01:10:34;8.40;;;5.20;;
7917;SDS011;4004;42.624;23.386;2023-12-28T01:13:01;9.97;;;5.53;;
7917;SDS011;4004;42.624;23.386;2023-12-28T01:15:29;8.83;;;5.17;;
7917;SDS011;4004;42.624;23.386;2023-12-28T01:17:56;9.20;;;5.07;;
7917;SDS011;4004;42.624;23.386;2023-12-28T01:20:23;10.10;;;5.23;;
7917;SDS011;4004;42.624;23.386;2023-12-28T01:22:50;8.37;;;5.30;;
7917;SDS011;4004;42.624;23.386;2023-12-28T01:25:17;7.37;;;5.00;;
7917;SDS011;4004;42.624;23.386;2023-12-28T01:27:44;13.20;;;5.67;;
7917;SDS011;4004;42.624;23.386;2023-12-28T01:30:11;6.50;;;5.10;;
7917;SDS011;4004;42.624;23.386;2023-12-28T01:32:39;7.87;;;4.83;;
7917;SDS011;4004;42.624;23.386;2023-12-28T01:35:07;6.20;;;4.23;;
7917;SDS011;4004;42.624;23.386;2023-12-28T01:37:34;6.90;;;4.53;;
7917;SDS011;4004;42.624;23.386;2023-12-28T01:40:00;11.53;;;4.83;;
7917;SDS011;4004;42.624;23.386;2023-12-28T01:42:27;8.80;;;4.80;;
7917;SDS011;4004;42.624;23.386;2023-12-28T01:44:55;10.03;;;5.07;;
7917;SDS011;4004;42.624;23.386;2023-12-28T01:47:23;6.23;;;4.60;;
7917;SDS011;4004;42.624;23.386;2023-12-28T01:49:51;6.37;;;4.67;;
7917;SDS011;4004;42.624;23.386;2023-12-28T01:52:19;7.57;;;4.87;;
7917;SDS011;4004;42.624;23.386;2023-12-28T01:54:46;6.80;;;4.27;;
7917;SDS011;4004;42.624;23.386;2023-12-28T01:57:14;8.30;;;4.33;;
7917;SDS011;4004;42.624;23.386;2023-12-28T01:59:42;6.47;;;4.33;;
7917;SDS011;4004;42.624;23.386;2023-12-28T02:02:09;7.33;;;4.23;;
7917;SDS011;4004;42.624;23.386;2023-12-28T02:04:37;7.23;;;4.57;;
7917;SDS011;4004;42.624;23.386;2023-12-28T02:07:05;6.13;;;3.97;;
7917;SDS011;4004;42.624;23.386;2023-12-28T02:09:33;5.87;;;4.37;;
7917;SDS011;4004;42.624;23.386;2023-12-28T02:11:59;5.70;;;4.33;;
7917;SDS011;4004;42.624;23.386;2023-12-28T02:14:27;7.73;;;4.63;;
7917;SDS011;4004;42.624;23.386;2023-12-28T02:16:57;7.87;;;4.43;;
7917;SDS011;4004;42.624;23.386;2023-12-28T02:19:38;7.23;;;4.07;;
7917;SDS011;4004;42.624;23.386;2023-12-28T02:22:10;9.13;;;5.80;;
7917;SDS011;4004;42.624;23.386;2023-12-28T02:27:39;9.23;;;5.67;;
7917;SDS011;4004;42.624;23.386;2023-12-28T02:30:08;7.13;;;5.50;;
7917;SDS011;4004;42.624;23.386;2023-12-28T02:32:39;8.37;;;5.70;;
7917;SDS011;4004;42.624;23.386;2023-12-28T02:35:14;7.07;;;5.20;;
7917;SDS011;4004;42.624;23.386;2023-12-28T02:37:47;8.20;;;5.83;;
7917;SDS011;4004;42.624;23.386;2023-12-28T02:40:18;7.50;;;5.67;;
7917;SDS011;4004;42.624;23.386;2023-12-28T02:42:46;10.67;;;5.53;;
7917;SDS011;4004;42.624;23.386;2023-12-28T02:45:13;6.70;;;5.33;;
7917;SDS011;4004;42.624;23.386;2023-12-28T02:47:40;10.47;;;5.93;;
7917;SDS011;4004;42.624;23.386;2023-12-28T02:50:07;8.83;;;5.83;;
7917;SDS011;4004;42.624;23.386;2023-12-28T02:52:34;9.83;;;5.20;;
7917;SDS011;4004;42.624;23.386;2023-12-28T02:55:01;9.67;;;5.77;;
7917;SDS011;4004;42.624;23.386;2023-12-28T02:57:30;12.53;;;6.50;;
7917;SDS011;4004;42.624;23.386;2023-12-28T02:59:56;10.03;;;5.57;;
7917;SDS011;4004;42.624;23.386;2023-12-28T03:02:26;7.57;;;5.20;;
7917;SDS011;4004;42.624;23.386;2023-12-28T03:04:54;11.00;;;6.33;;
7917;SDS011;4004;42.624;23.386;2023-12-28T03:07:21;7.67;;;5.70;;
7917;SDS011;4004;42.624;23.386;2023-12-28T03:09:48;8.63;;;5.53;;
7917;SDS011;4004;42.624;23.386;2023-12-28T03:12:15;9.27;;;5.80;;
7917;SDS011;4004;42.624;23.386;2023-12-28T03:14:43;8.37;;;5.43;;
7917;SDS011;4004;42.624;23.386;2023-12-28T03:17:10;8.50;;;5.93;;
7917;SDS011;4004;42.624;23.386;2023-12-28T03:19:38;6.73;;;5.47;;
7917;SDS011;4004;42.624;23.386;2023-12-28T03:22:05;8.33;;;5.60;;
7917;SDS011;4004;42.624;23.386;2023-12-28T03:24:32;8.77;;;6.00;;
7917;SDS011;4004;42.624;23.386;2023-12-28T03:26:59;7.93;;;6.43;;
7917;SDS011;4004;42.624;23.386;2023-12-28T03:29:26;8.60;;;5.77;;
7917;SDS011;4004;42.624;23.386;2023-12-28T03:31:55;8.13;;;5.97;;
7917;SDS011;4004;42.624;23.386;2023-12-28T03:34:22;9.70;;;6.00;;
7917;SDS011;4004;42.624;23.386;2023-12-28T03:36:51;7.10;;;5.37;;
7917;SDS011;4004;42.624;23.386;2023-12-28T03:39:18;7.20;;;5.27;;
7917;SDS011;4004;42.624;23.386;2023-12-28T03:41:45;7.37;;;5.23;;
7917;SDS011;4004;42.624;23.386;2023-12-28T03:44:13;10.40;;;6.13;;
7917;SDS011;4004;42.624;23.386;2023-12-28T03:46:40;7.47;;;5.40;;
7917;SDS011;4004;42.624;23.386;2023-12-28T03:49:08;11.30;;;5.37;;
7917;SDS011;4004;42.624;23.386;2023-12-28T03:51:35;8.40;;;4.93;;
7917;SDS011;4004;42.624;23.386;2023-12-28T03:54:02;9.83;;;5.10;;
7917;SDS011;4004;42.624;23.386;2023-12-28T03:56:29;7.67;;;5.00;;
7917;SDS011;4004;42.624;23.386;2023-12-28T03:58:58;6.77;;;5.50;;
7917;SDS011;4004;42.624;23.386;2023-12-28T04:01:25;7.57;;;5.47;;
7917;SDS011;4004;42.624;23.386;2023-12-28T04:03:52;6.80;;;4.77;;
7917;SDS011;4004;42.624;23.386;2023-12-28T04:06:20;6.63;;;5.00;;
7917;SDS011;4004;42.624;23.386;2023-12-28T04:08:47;7.50;;;5.73;;
7917;SDS011;4004;42.624;23.386;2023-12-28T04:11:14;12.03;;;5.27;;
7917;SDS011;4004;42.624;23.386;2023-12-28T04:13:41;6.60;;;4.83;;
7917;SDS011;4004;42.624;23.386;2023-12-28T04:16:11;9.80;;;5.17;;
7917;SDS011;4004;42.624;23.386;2023-12-28T04:18:39;6.60;;;5.40;;
7917;SDS011;4004;42.624;23.386;2023-12-28T04:21:07;7.97;;;5.20;;
7917;SDS011;4004;42.624;23.386;2023-12-28T04:23:37;7.57;;;5.43;;
7917;SDS011;4004;42.624;23.386;2023-12-28T04:26:04;9.10;;;5.63;;
7917;SDS011;4004;42.624;23.386;2023-12-28T04:28:31;8.50;;;5.30;;
7917;SDS011;4004;42.624;23.386;2023-12-28T04:31:01;8.47;;;5.37;;
7917;SDS011;4004;42.624;23.386;2023-12-28T04:33:29;6.30;;;4.90;;
7917;SDS011;4004;42.624;23.386;2023-12-28T04:35:55;7.27;;;4.87;;
7917;SDS011;4004;42.624;23.386;2023-12-28T04:38:22;6.27;;;4.57;;
7917;SDS011;4004;42.624;23.386;2023-12-28T04:40:51;8.53;;;5.37;;
7917;SDS011;4004;42.624;23.386;2023-12-28T04:43:18;6.80;;;4.47;;
7917;SDS011;4004;42.624;23.386;2023-12-28T04:45:45;7.23;;;5.07;;
7917;SDS011;4004;42.624;23.386;2023-12-28T04:48:12;7.73;;;4.53;;
7917;SDS011;4004;42.624;23.386;2023-12-28T04:50:39;6.00;;;4.03;;
7917;SDS011;4004;42.624;23.386;2023-12-28T04:53:06;5.03;;;3.90;;
7917;SDS011;4004;42.624;23.386;2023-12-28T04:55:32;7.60;;;4.10;;
7917;SDS011;4004;42.624;23.386;2023-12-28T04:58:01;6.40;;;3.90;;
7917;SDS011;4004;42.624;23.386;2023-12-28T05:00:28;6.30;;;3.70;;
7917;SDS011;4004;42.624;23.386;2023-12-28T05:02:54;5.93;;;3.63;;
7917;SDS011;4004;42.624;23.386;2023-12-28T05:05:21;5.90;;;3.60;;
7917;SDS011;4004;42.624;23.386;2023-12-28T05:07:48;5.40;;;3.90;;
7917;SDS011;4004;42.624;23.386;2023-12-28T05:10:15;5.93;;;3.53;;
7917;SDS011;4004;42.624;23.386;2023-12-28T05:12:42;7.83;;;4.23;;
7917;SDS011;4004;42.624;23.386;2023-12-28T05:15:10;5.53;;;3.80;;
7917;SDS011;4004;42.624;23.386;2023-12-28T05:17:37;4.87;;;3.70;;
7917;SDS011;4004;42.624;23.386;2023-12-28T05:20:05;6.17;;;4.13;;
7917;SDS011;4004;42.624;23.386;2023-12-28T05:22:34;4.30;;;3.63;;
7917;SDS011;4004;42.624;23.386;2023-12-28T05:25:01;8.45;;;5.00;;
7917;SDS011;4004;42.624;23.386;2023-12-28T05:27:28;6.00;;;4.90;;
7917;SDS011;4004;42.624;23.386;2023-12-28T05:29:55;6.77;;;4.70;;
7917;SDS011;4004;42.624;23.386;2023-12-28T05:32:23;7.00;;;4.20;;
7917;SDS011;4004;42.624;23.386;2023-12-28T05:34:50;5.17;;;4.23;;
7917;SDS011;4004;42.624;23.386;2023-12-28T05:37:17;6.90;;;4.63;;
7917;SDS011;4004;42.624;23.386;2023-12-28T05:39:44;8.90;;;5.27;;
7917;SDS011;4004;42.624;23.386;2023-12-28T05:42:10;6.10;;;4.80;;
7917;SDS011;4004;42.624;23.386;2023-12-28T05:44:37;8.93;;;4.83;;
7917;SDS011;4004;42.624;23.386;2023-12-28T05:47:04;6.30;;;4.73;;
7917;SDS011;4004;42.624;23.386;2023-12-28T05:49:33;10.00;;;5.35;;
7917;SDS011;4004;42.624;23.386;2023-12-28T05:51:59;7.80;;;4.90;;
7917;SDS011;4004;42.624;23.386;2023-12-28T05:54:26;9.35;;;5.40;;
7917;SDS011;4004;42.624;23.386;2023-12-28T05:56:53;11.33;;;5.57;;
7917;SDS011;4004;42.624;23.386;2023-12-28T05:59:20;6.53;;;4.97;;
7917;SDS011;4004;42.624;23.386;2023-12-28T06:01:47;8.02;;;5.18;;
7917;SDS011;4004;42.624;23.386;2023-12-28T06:04:14;8.55;;;5.82;;
7917;SDS011;4004;42.624;23.386;2023-12-28T06:06:43;8.70;;;6.13;;
7917;SDS011;4004;42.624;23.386;2023-12-28T06:09:09;7.25;;;5.53;;
7917;SDS011;4004;42.624;23.386;2023-12-28T06:11:36;5.95;;;5.28;;
7917;SDS011;4004;42.624;23.386;2023-12-28T06:14:03;7.80;;;5.27;;
7917;SDS011;4004;42.624;23.386;2023-12-28T06:16:30;7.30;;;5.07;;
7917;SDS011;4004;42.624;23.386;2023-12-28T06:18:58;6.15;;;4.95;;
7917;SDS011;4004;42.624;23.386;2023-12-28T06:21:26;8.00;;;4.80;;
7917;SDS011;4004;42.624;23.386;2023-12-28T06:23:54;7.63;;;5.10;;
7917;SDS011;4004;42.624;23.386;2023-12-28T06:26:21;10.13;;;4.90;;
7917;SDS011;4004;42.624;23.386;2023-12-28T06:28:48;9.13;;;4.73;;
7917;SDS011;4004;42.624;23.386;2023-12-28T06:31:15;7.80;;;4.93;;
7917;SDS011;4004;42.624;23.386;2023-12-28T06:33:42;6.30;;;4.23;;
7917;SDS011;4004;42.624;23.386;2023-12-28T06:36:10;6.17;;;4.27;;
7917;SDS011;4004;42.624;23.386;2023-12-28T06:38:38;9.83;;;4.60;;
7917;SDS011;4004;42.624;23.386;2023-12-28T06:41:11;7.60;;;4.43;;
7917;SDS011;4004;42.624;23.386;2023-12-28T06:43:38;7.00;;;5.07;;
7917;SDS011;4004;42.624;23.386;2023-12-28T06:46:05;9.37;;;5.43;;
7917;SDS011;4004;42.624;23.386;2023-12-28T06:48:32;7.53;;;5.13;;
7917;SDS011;4004;42.624;23.386;2023-12-28T06:50:59;8.10;;;4.63;;
7917;SDS011;4004;42.624;23.386;2023-12-28T06:53:27;7.40;;;5.30;;
7917;SDS011;4004;42.624;23.386;2023-12-28T06:55:54;9.40;;;5.40;;
7917;SDS011;4004;42.624;23.386;2023-12-28T06:58:22;7.70;;;5.63;;
7917;SDS011;4004;42.624;23.386;2023-12-28T07:00:49;10.37;;;6.80;;
7917;SDS011;4004;42.624;23.386;2023-12-28T07:03:16;14.23;;;7.60;;
7917;SDS011;4004;42.624;23.386;2023-12-28T07:05:43;10.23;;;7.13;;
7917;SDS011;4004;42.624;23.386;2023-12-28T07:08:10;9.47;;;6.77;;
7917;SDS011;4004;42.624;23.386;2023-12-28T07:10:37;11.27;;;7.97;;
7917;SDS011;4004;42.624;23.386;2023-12-28T07:13:04;9.67;;;7.00;;
7917;SDS011;4004;42.624;23.386;2023-12-28T07:15:32;10.27;;;7.50;;
7917;SDS011;4004;42.624;23.386;2023-12-28T07:17:59;9.90;;;7.27;;
7917;SDS011;4004;42.624;23.386;2023-12-28T07:20:26;9.40;;;7.50;;
7917;SDS011;4004;42.624;23.386;2023-12-28T07:22:53;9.77;;;7.57;;
7917;SDS011;4004;42.624;23.386;2023-12-28T07:25:20;9.80;;;6.77;;
7917;SDS011;4004;42.624;23.386;2023-12-28T07:27:47;8.27;;;6.13;;
7917;SDS011;4004;42.624;23.386;2023-12-28T07:30:14;11.20;;;6.47;;
7917;SDS011;4004;42.624;23.386;2023-12-28T07:32:43;8.97;;;5.93;;
7917;SDS011;4004;42.624;23.386;2023-12-28T07:35:11;8.40;;;5.63;;
7917;SDS011;4004;42.624;23.386;2023-12-28T07:37:38;9.03;;;5.87;;
7917;SDS011;4004;42.624;23.386;2023-12-28T07:40:05;7.60;;;5.83;;
7917;SDS011;4004;42.624;23.386;2023-12-28T07:42:33;9.73;;;5.70;;
7917;SDS011;4004;42.624;23.386;2023-12-28T07:45:00;11.17;;;5.77;;
7917;SDS011;4004;42.624;23.386;2023-12-28T07:47:26;8.47;;;5.03;;
7917;SDS011;4004;42.624;23.386;2023-12-28T07:49:54;8.00;;;6.23;;
7917;SDS011;4004;42.624;23.386;2023-12-28T07:52:21;18.57;;;12.20;;
7917;SDS011;4004;42.624;23.386;2023-12-28T07:54:48;14.80;;;9.60;;
7917;SDS011;4004;42.624;23.386;2023-12-28T07:57:15;17.03;;;10.50;;
7917;SDS011;4004;42.624;23.386;2023-12-28T07:59:42;16.60;;;11.77;;
7917;SDS011;4004;42.624;23.386;2023-12-28T08:02:09;16.37;;;11.07;;
7917;SDS011;4004;42.624;23.386;2023-12-28T08:04:36;20.83;;;14.73;;
7917;SDS011;4004;42.624;23.386;2023-12-28T08:07:05;17.33;;;11.97;;
7917;SDS011;4004;42.624;23.386;2023-12-28T08:09:33;20.53;;;13.50;;
7917;SDS011;4004;42.624;23.386;2023-12-28T08:12:01;20.47;;;11.47;;
7917;SDS011;4004;42.624;23.386;2023-12-28T08:14:28;15.40;;;10.93;;
7917;SDS011;4004;42.624;23.386;2023-12-28T08:16:55;16.67;;;9.80;;
7917;SDS011;4004;42.624;23.386;2023-12-28T08:19:22;18.70;;;11.97;;
7917;SDS011;4004;42.624;23.386;2023-12-28T08:21:48;18.07;;;13.40;;
7917;SDS011;4004;42.624;23.386;2023-12-28T08:24:17;19.03;;;11.10;;
7917;SDS011;4004;42.624;23.386;2023-12-28T08:26:43;17.47;;;10.93;;
7917;SDS011;4004;42.624;23.386;2023-12-28T08:29:10;14.77;;;11.00;;
7917;SDS011;4004;42.624;23.386;2023-12-28T08:31:38;17.47;;;12.30;;
7917;SDS011;4004;42.624;23.386;2023-12-28T08:34:06;17.97;;;11.90;;
7917;SDS011;4004;42.624;23.386;2023-12-28T08:36:33;21.60;;;13.00;;
7917;SDS011;4004;42.624;23.386;2023-12-28T08:38:59;16.77;;;11.10;;
7917;SDS011;4004;42.624;23.386;2023-12-28T08:41:28;17.83;;;13.23;;
7917;SDS011;4004;42.624;23.386;2023-12-28T08:43:55;19.53;;;13.00;;
7917;SDS011;4004;42.624;23.386;2023-12-28T08:46:22;18.63;;;13.97;;
7917;SDS011;4004;42.624;23.386;2023-12-28T08:48:50;20.87;;;14.63;;
7917;SDS011;4004;42.624;23.386;2023-12-28T08:51:17;18.50;;;12.37;;
7917;SDS011;4004;42.624;23.386;2023-12-28T08:53:44;19.57;;;13.40;;
7917;SDS011;4004;42.624;23.386;2023-12-28T08:56:16;18.47;;;12.63;;
7917;SDS011;4004;42.624;23.386;2023-12-28T08:58:45;21.33;;;12.13;;
7917;SDS011;4004;42.624;23.386;2023-12-28T09:01:16;24.73;;;12.47;;
7917;SDS011;4004;42.624;23.386;2023-12-28T09:03:44;19.77;;;12.40;;
7917;SDS011;4004;42.624;23.386;2023-12-28T09:06:11;19.70;;;13.27;;
7917;SDS011;4004;42.624;23.386;2023-12-28T09:08:40;18.77;;;13.47;;
7917;SDS011;4004;42.624;23.386;2023-12-28T09:11:09;19.37;;;13.53;;
7917;SDS011;4004;42.624;23.386;2023-12-28T09:13:36;17.03;;;12.73;;
7917;SDS011;4004;42.624;23.386;2023-12-28T09:16:05;17.90;;;12.97;;
7917;SDS011;4004;42.624;23.386;2023-12-28T09:18:32;21.90;;;13.90;;
7917;SDS011;4004;42.624;23.386;2023-12-28T09:21:01;22.57;;;14.17;;
7917;SDS011;4004;42.624;23.386;2023-12-28T09:23:28;20.37;;;14.23;;
7917;SDS011;4004;42.624;23.386;2023-12-28T09:25:56;23.27;;;15.10;;
7917;SDS011;4004;42.624;23.386;2023-12-28T09:28:23;21.07;;;14.57;;
7917;SDS011;4004;42.624;23.386;2023-12-28T09:30:50;26.20;;;15.30;;
7917;SDS011;4004;42.624;23.386;2023-12-28T09:33:19;20.73;;;15.40;;
7917;SDS011;4004;42.624;23.386;2023-12-28T09:35:46;30.40;;;17.37;;
7917;SDS011;4004;42.624;23.386;2023-12-28T09:38:13;28.20;;;16.23;;
7917;SDS011;4004;42.624;23.386;2023-12-28T09:40:41;21.17;;;16.30;;
7917;SDS011;4004;42.624;23.386;2023-12-28T09:43:09;22.63;;;16.43;;
7917;SDS011;4004;42.624;23.386;2023-12-28T09:45:40;24.17;;;15.33;;
7917;SDS011;4004;42.624;23.386;2023-12-28T09:48:07;21.80;;;16.10;;
7917;SDS011;4004;42.624;23.386;2023-12-28T09:50:35;24.50;;;16.67;;
7917;SDS011;4004;42.624;23.386;2023-12-28T09:53:02;22.50;;;16.17;;
7917;SDS011;4004;42.624;23.386;2023-12-28T09:55:29;25.27;;;17.20;;
7917;SDS011;4004;42.624;23.386;2023-12-28T09:57:56;24.73;;;16.00;;
7917;SDS011;4004;42.624;23.386;2023-12-28T10:00:24;29.63;;;15.80;;
7917;SDS011;4004;42.624;23.386;2023-12-28T10:02:51;23.87;;;16.20;;
7917;SDS011;4004;42.624;23.386;2023-12-28T10:05:18;22.70;;;17.13;;
7917;SDS011;4004;42.624;23.386;2023-12-28T10:07:47;23.47;;;17.30;;
7917;SDS011;4004;42.624;23.386;2023-12-28T10:10:14;31.10;;;19.17;;
7917;SDS011;4004;42.624;23.386;2023-12-28T10:12:41;26.57;;;16.73;;
7917;SDS011;4004;42.624;23.386;2023-12-28T10:15:09;21.07;;;17.47;;
7917;SDS011;4004;42.624;23.386;2023-12-28T10:17:36;26.57;;;17.97;;
7917;SDS011;4004;42.624;23.386;2023-12-28T10:20:03;22.47;;;16.97;;
7917;SDS011;4004;42.624;23.386;2023-12-28T10:22:33;22.87;;;16.27;;
7917;SDS011;4004;42.624;23.386;2023-12-28T10:25:03;27.87;;;16.47;;
7917;SDS011;4004;42.624;23.386;2023-12-28T10:27:30;24.27;;;16.53;;
7917;SDS011;4004;42.624;23.386;2023-12-28T10:29:58;23.80;;;16.77;;
7917;SDS011;4004;42.624;23.386;2023-12-28T10:32:25;21.80;;;15.80;;
7917;SDS011;4004;42.624;23.386;2023-12-28T10:34:52;28.40;;;16.47;;
7917;SDS011;4004;42.624;23.386;2023-12-28T10:37:20;24.00;;;16.17;;
7917;SDS011;4004;42.624;23.386;2023-12-28T10:39:47;25.50;;;16.87;;
7917;SDS011;4004;42.624;23.386;2023-12-28T10:42:22;25.07;;;14.57;;
7917;SDS011;4004;42.624;23.386;2023-12-28T10:44:55;26.90;;;15.70;;
7917;SDS011;4004;42.624;23.386;2023-12-28T10:47:31;35.10;;;15.77;;
7917;SDS011;4004;42.624;23.386;2023-12-28T10:50:00;21.97;;;15.00;;
7917;SDS011;4004;42.624;23.386;2023-12-28T10:52:30;28.17;;;15.23;;
7917;SDS011;4004;42.624;23.386;2023-12-28T10:55:03;20.60;;;14.97;;
7917;SDS011;4004;42.624;23.386;2023-12-28T10:57:55;19.67;;;14.20;;
7917;SDS011;4004;42.624;23.386;2023-12-28T11:00:29;22.87;;;14.63;;
7917;SDS011;4004;42.624;23.386;2023-12-28T11:03:02;20.47;;;14.50;;
7917;SDS011;4004;42.624;23.386;2023-12-28T11:05:30;19.17;;;15.03;;
7917;SDS011;4004;42.624;23.386;2023-12-28T11:07:59;23.47;;;15.27;;
7917;SDS011;4004;42.624;23.386;2023-12-28T11:10:26;22.53;;;15.17;;
7917;SDS011;4004;42.624;23.386;2023-12-28T11:12:56;23.20;;;15.97;;
7917;SDS011;4004;42.624;23.386;2023-12-28T11:15:24;21.13;;;16.20;;
7917;SDS011;4004;42.624;23.386;2023-12-28T11:17:52;27.50;;;17.87;;
7917;SDS011;4004;42.624;23.386;2023-12-28T11:20:19;29.23;;;17.73;;
7917;SDS011;4004;42.624;23.386;2023-12-28T11:22:47;23.17;;;17.63;;
7917;SDS011;4004;42.624;23.386;2023-12-28T11:25:15;24.03;;;17.30;;
7917;SDS011;4004;42.624;23.386;2023-12-28T11:27:43;20.07;;;16.17;;
7917;SDS011;4004;42.624;23.386;2023-12-28T11:30:13;36.27;;;18.70;;
7917;SDS011;4004;42.624;23.386;2023-12-28T11:32:40;27.93;;;18.93;;
7917;SDS011;4004;42.624;23.386;2023-12-28T11:35:09;22.93;;;17.13;;
7917;SDS011;4004;42.624;23.386;2023-12-28T11:37:39;23.83;;;17.13;;
7917;SDS011;4004;42.624;23.386;2023-12-28T11:40:12;30.13;;;17.93;;
7917;SDS011;4004;42.624;23.386;2023-12-28T11:42:50;27.70;;;18.50;;
7917;SDS011;4004;42.624;23.386;2023-12-28T11:45:20;24.63;;;17.00;;
7917;SDS011;4004;42.624;23.386;2023-12-28T11:47:58;30.03;;;15.57;;
7917;SDS011;4004;42.624;23.386;2023-12-28T11:50:25;25.03;;;15.17;;
7917;SDS011;4004;42.624;23.386;2023-12-28T11:52:52;23.37;;;17.03;;
7917;SDS011;4004;42.624;23.386;2023-12-28T11:55:20;26.53;;;17.00;;
7917;SDS011;4004;42.624;23.386;2023-12-28T11:57:48;23.63;;;17.40;;
7917;SDS011;4004;42.624;23.386;2023-12-28T12:00:15;31.47;;;17.70;;
7917;SDS011;4004;42.624;23.386;2023-12-28T12:02:44;23.27;;;16.70;;
7917;SDS011;4004;42.624;23.386;2023-12-28T12:05:11;25.57;;;17.13;;
7917;SDS011;4004;42.624;23.386;2023-12-28T12:07:38;34.53;;;17.17;;
7917;SDS011;4004;42.624;23.386;2023-12-28T12:10:06;23.07;;;16.90;;
7917;SDS011;4004;42.624;23.386;2023-12-28T12:12:33;23.80;;;16.80;;
7917;SDS011;4004;42.624;23.386;2023-12-28T12:15:00;25.40;;;17.30;;
7917;SDS011;4004;42.624;23.386;2023-12-28T12:17:27;23.80;;;16.37;;
7917;SDS011;4004;42.624;23.386;2023-12-28T12:19:56;20.20;;;15.23;;
7917;SDS011;4004;42.624;23.386;2023-12-28T12:22:23;23.27;;;15.17;;
7917;SDS011;4004;42.624;23.386;2023-12-28T12:25:09;26.37;;;15.50;;
7917;SDS011;4004;42.624;23.386;2023-12-28T12:27:36;26.43;;;15.97;;
7917;SDS011;4004;42.624;23.386;2023-12-28T12:30:04;24.23;;;15.73;;
7917;SDS011;4004;42.624;23.386;2023-12-28T12:32:31;27.23;;;15.77;;
7917;SDS011;4004;42.624;23.386;2023-12-28T12:34:59;27.13;;;14.90;;
7917;SDS011;4004;42.624;23.386;2023-12-28T12:37:27;20.23;;;16.07;;
7917;SDS011;4004;42.624;23.386;2023-12-28T12:39:54;23.90;;;14.83;;
7917;SDS011;4004;42.624;23.386;2023-12-28T12:42:21;22.97;;;14.40;;
7917;SDS011;4004;42.624;23.386;2023-12-28T12:44:49;22.30;;;15.57;;
7917;SDS011;4004;42.624;23.386;2023-12-28T12:47:16;21.23;;;16.40;;
7917;SDS011;4004;42.624;23.386;2023-12-28T12:49:43;33.20;;;15.87;;
7917;SDS011;4004;42.624;23.386;2023-12-28T12:52:11;27.33;;;15.47;;
7917;SDS011;4004;42.624;23.386;2023-12-28T12:54:39;38.07;;;17.00;;
7917;SDS011;4004;42.624;23.386;2023-12-28T12:57:06;25.03;;;15.53;;
7917;SDS011;4004;42.624;23.386;2023-12-28T12:59:33;30.90;;;16.53;;
7917;SDS011;4004;42.624;23.386;2023-12-28T13:02:00;30.90;;;18.20;;
7917;SDS011;4004;42.624;23.386;2023-12-28T13:04:27;28.13;;;16.97;;
7917;SDS011;4004;42.624;23.386;2023-12-28T13:06:54;26.17;;;16.13;;
7917;SDS011;4004;42.624;23.386;2023-12-28T13:09:22;26.80;;;17.83;;
7917;SDS011;4004;42.624;23.386;2023-12-28T13:11:49;26.40;;;17.77;;
7917;SDS011;4004;42.624;23.386;2023-12-28T13:14:17;24.70;;;17.57;;
7917;SDS011;4004;42.624;23.386;2023-12-28T13:16:43;28.07;;;17.50;;
7917;SDS011;4004;42.624;23.386;2023-12-28T13:19:13;27.93;;;17.17;;
7917;SDS011;4004;42.624;23.386;2023-12-28T13:21:40;34.80;;;17.43;;
7917;SDS011;4004;42.624;23.386;2023-12-28T13:24:08;28.93;;;16.60;;
7917;SDS011;4004;42.624;23.386;2023-12-28T13:26:36;24.03;;;17.20;;
7917;SDS011;4004;42.624;23.386;2023-12-28T13:29:03;28.63;;;17.33;;
7917;SDS011;4004;42.624;23.386;2023-12-28T13:31:30;24.17;;;17.53;;
7917;SDS011;4004;42.624;23.386;2023-12-28T13:33:57;61.50;;;45.43;;
7917;SDS011;4004;42.624;23.386;2023-12-28T13:36:24;35.47;;;24.50;;
7917;SDS011;4004;42.624;23.386;2023-12-28T13:38:52;31.43;;;16.87;;
7917;SDS011;4004;42.624;23.386;2023-12-28T13:41:19;24.20;;;19.03;;
7917;SDS011;4004;42.624;23.386;2023-12-28T13:43:47;25.57;;;16.87;;
7917;SDS011;4004;42.624;23.386;2023-12-28T13:46:14;27.17;;;17.40;;
7917;SDS011;4004;42.624;23.386;2023-12-28T13:48:41;34.57;;;17.43;;
7917;SDS011;4004;42.624;23.386;2023-12-28T13:51:08;31.87;;;17.37;;
7917;SDS011;4004;42.624;23.386;2023-12-28T13:53:35;26.50;;;17.40;;
7917;SDS011;4004;42.624;23.386;2023-12-28T13:56:05;27.17;;;16.00;;
7917;SDS011;4004;42.624;23.386;2023-12-28T13:58:33;31.17;;;17.90;;
7917;SDS011;4004;42.624;23.386;2023-12-28T14:01:02;27.13;;;15.67;;
7917;SDS011;4004;42.624;23.386;2023-12-28T14:03:29;29.77;;;16.57;;
7917;SDS011;4004;42.624;23.386;2023-12-28T14:05:56;31.53;;;16.87;;
7917;SDS011;4004;42.624;23.386;2023-12-28T14:08:23;38.33;;;21.20;;
7917;SDS011;4004;42.624;23.386;2023-12-28T14:10:50;46.27;;;26.00;;
7917;SDS011;4004;42.624;23.386;2023-12-28T14:13:16;35.30;;;19.40;;
7917;SDS011;4004;42.624;23.386;2023-12-28T14:15:44;31.20;;;18.47;;
7917;SDS011;4004;42.624;23.386;2023-12-28T14:18:13;40.07;;;18.77;;
7917;SDS011;4004;42.624;23.386;2023-12-28T14:20:40;43.10;;;19.30;;
7917;SDS011;4004;42.624;23.386;2023-12-28T14:23:07;31.70;;;17.00;;
7917;SDS011;4004;42.624;23.386;2023-12-28T14:25:35;32.60;;;17.13;;
7917;SDS011;4004;42.624;23.386;2023-12-28T14:28:03;22.40;;;16.40;;
7917;SDS011;4004;42.624;23.386;2023-12-28T14:30:30;32.53;;;16.73;;
7917;SDS011;4004;42.624;23.386;2023-12-28T14:32:58;33.53;;;16.73;;
7917;SDS011;4004;42.624;23.386;2023-12-28T14:35:27;27.47;;;15.97;;
7917;SDS011;4004;42.624;23.386;2023-12-28T14:37:54;37.17;;;22.57;;
7917;SDS011;4004;42.624;23.386;2023-12-28T14:40:21;29.97;;;17.03;;
7917;SDS011;4004;42.624;23.386;2023-12-28T14:42:48;23.80;;;15.50;;
7917;SDS011;4004;42.624;23.386;2023-12-28T14:45:14;25.37;;;13.33;;
7917;SDS011;4004;42.624;23.386;2023-12-28T14:47:41;20.50;;;12.47;;
7917;SDS011;4004;42.624;23.386;2023-12-28T14:50:08;24.67;;;13.33;;
7917;SDS011;4004;42.624;23.386;2023-12-28T14:52:36;21.07;;;14.57;;
7917;SDS011;4004;42.624;23.386;2023-12-28T14:55:07;22.03;;;12.73;;